Time;durP1;ratioP1;P1;durP2;ratioP2;P2;SDS_P1;SDS_P2;PMS_P1;PMS_P2;Temp;Humidity;BMP_temperature;BMP_pressure;BME280_temperature;BME280_humidity;BME280_pressure;Samples;Min_cycle;Max_cycle;Signal;HPM_P1;HPM_P2
2022/11/29 00:02:01;;;;;;;89.65;12.50;;;8.00;99.90;;;;;;5063816;28;20037;-38
2022/11/29 00:04:27;;;;;;;111.18;14.43;;;8.00;99.90;;;;;;5066473;28;20516;-37
2022/11/29 00:06:52;;;;;;;45.42;8.93;;;8.00;99.90;;;;;;5057541;28;20119;-39
2022/11/29 00:09:18;;;;;;;63.28;10.50;;;8.10;99.90;;;;;;5060196;28;20050;-37
2022/11/29 00:14:28;;;;;;;42.55;8.13;;;8.00;99.90;;;;;;5058097;28;20135;-38
2022/11/29 00:16:58;;;;;;;60.60;10.43;;;8.00;99.90;;;;;;5063725;28;20064;-39
2022/11/29 00:19:23;;;;;;;71.70;12.60;;;8.00;99.90;;;;;;5062621;28;20045;-37
2022/11/29 00:21:50;;;;;;;42.45;8.43;;;8.10;99.90;;;;;;5066195;28;20044;-39
2022/11/29 00:24:16;;;;;;;54.10;10.82;;;8.00;99.90;;;;;;5067500;28;20465;-38
2022/11/29 00:26:42;;;;;;;37.35;7.38;;;8.10;99.90;;;;;;5059395;28;20025;-36
2022/11/29 00:29:08;;;;;;;60.35;10.88;;;8.00;99.90;;;;;;5061209;28;20635;-37
2022/11/29 00:31:34;;;;;;;105.78;14.68;;;8.00;99.90;;;;;;5065351;28;20062;-38
2022/11/29 00:34:03;;;;;;;77.70;11.38;;;8.00;99.90;;;;;;5060896;28;20041;-37
2022/11/29 00:36:29;;;;;;;64.25;10.07;;;8.00;99.90;;;;;;5036011;28;20053;-37
2022/11/29 00:38:54;;;;;;;42.17;7.00;;;8.00;99.90;;;;;;5036092;28;20422;-38
2022/11/29 00:41:20;;;;;;;32.47;8.50;;;8.00;99.90;;;;;;5038187;28;20047;-38
2022/11/29 00:43:46;;;;;;;94.70;12.27;;;8.10;99.90;;;;;;5029836;28;20076;-38
2022/11/29 00:46:12;;;;;;;87.80;11.35;;;8.10;99.90;;;;;;5041625;28;20044;-37
2022/11/29 00:48:37;;;;;;;98.57;13.13;;;8.10;99.90;;;;;;5045145;28;20049;-37
2022/11/29 00:51:04;;;;;;;70.97;10.85;;;8.00;99.90;;;;;;5042933;28;20048;-37
2022/11/29 00:53:30;;;;;;;57.72;9.57;;;8.10;99.90;;;;;;5043492;28;20037;-38
2022/11/29 00:55:56;;;;;;;61.40;9.95;;;8.00;99.90;;;;;;5037041;28;20042;-38
2022/11/29 00:58:22;;;;;;;51.15;8.43;;;8.00;99.90;;;;;;5036880;28;20067;-37
2022/11/29 01:00:47;;;;;;;51.53;10.30;;;8.00;99.90;;;;;;5036529;28;20099;-37
2022/11/29 01:03:14;;;;;;;79.57;10.77;;;8.10;99.90;;;;;;5037199;28;20125;-37
2022/11/29 01:05:41;;;;;;;84.57;12.93;;;8.10;99.90;;;;;;5042119;28;20041;-37
2022/11/29 01:08:07;;;;;;;47.17;8.75;;;8.10;99.90;;;;;;5049330;28;20067;-37
2022/11/29 01:10:33;;;;;;;61.75;8.55;;;8.10;99.90;;;;;;5038066;28;20457;-37
2022/11/29 01:12:59;;;;;;;35.75;7.32;;;8.10;99.90;;;;;;5016800;28;20037;-39
2022/11/29 01:15:24;;;;;;;31.17;6.47;;;8.10;99.90;;;;;;5043332;28;20067;-37
2022/11/29 01:17:50;;;;;;;62.28;9.32;;;8.10;99.90;;;;;;5043798;28;20048;-38
2022/11/29 01:20:16;;;;;;;40.70;7.95;;;8.10;99.90;;;;;;5047961;28;20043;-37
2022/11/29 01:22:42;;;;;;;82.70;12.15;;;8.10;99.90;;;;;;5052005;28;20033;-37
2022/11/29 01:25:10;;;;;;;80.57;9.30;;;8.10;99.90;;;;;;5047227;28;20033;-38
2022/11/29 01:27:35;;;;;;;92.10;13.25;;;8.10;99.90;;;;;;5045328;28;20486;-38
2022/11/29 01:30:02;;;;;;;78.68;12.55;;;8.00;99.90;;;;;;5030944;28;20037;-37
2022/11/29 01:32:28;;;;;;;125.90;14.32;;;8.00;99.90;;;;;;5039158;28;20297;-38
2022/11/29 01:34:53;;;;;;;55.55;8.38;;;8.00;99.90;;;;;;5053940;28;20475;-45
2022/11/29 01:37:19;;;;;;;90.30;10.13;;;8.00;99.90;;;;;;5066347;28;20596;-37
2022/11/29 01:39:45;;;;;;;108.43;13.13;;;7.90;99.90;;;;;;5068176;28;20127;-38
2022/11/29 01:42:11;;;;;;;45.97;8.35;;;7.90;99.90;;;;;;5060061;28;20135;-40
2022/11/29 01:44:37;;;;;;;87.80;10.27;;;7.90;99.90;;;;;;5065278;28;20045;-38
2022/11/29 01:47:02;;;;;;;61.30;10.05;;;7.90;99.90;;;;;;5062264;28;20045;-37
2022/11/29 01:49:41;;;;;;;48.85;8.27;;;7.90;99.90;;;;;;5055877;28;20118;-37
2022/11/29 01:52:13;;;;;;;68.97;8.90;;;8.00;99.90;;;;;;5060858;28;20044;-37
2022/11/29 01:54:42;;;;;;;88.88;9.80;;;7.90;99.90;;;;;;5063863;28;20150;-37
2022/11/29 01:57:08;;;;;;;130.48;14.32;;;7.90;99.90;;;;;;5061440;28;20028;-37
2022/11/29 01:59:38;;;;;;;80.35;9.25;;;7.90;99.90;;;;;;5062842;28;20126;-40
2022/11/29 02:02:16;;;;;;;105.03;10.05;;;7.90;99.90;;;;;;5062218;28;20051;-39
2022/11/29 02:04:44;;;;;;;57.10;7.55;;;7.90;99.90;;;;;;5059726;28;20028;-37
2022/11/29 02:07:10;;;;;;;50.38;7.38;;;7.90;99.90;;;;;;5057407;28;20048;-38
2022/11/29 02:09:36;;;;;;;88.45;9.70;;;7.90;99.90;;;;;;5060385;28;20029;-37
2022/11/29 02:12:28;;;;;;;69.43;10.32;;;7.80;99.90;;;;;;5066001;28;20111;-38
2022/11/29 02:15:21;;;;;;;75.38;8.65;;;7.80;99.90;;;;;;5067142;28;20037;-37
2022/11/29 02:18:07;;;;;;;79.00;10.85;;;7.80;99.90;;;;;;5076712;28;20079;-37
2022/11/29 02:21:06;;;;;;;86.78;10.20;;;7.80;99.90;;;;;;5063673;28;20059;-38
2022/11/29 02:24:10;;;;;;;104.15;11.50;;;7.80;99.90;;;;;;5067435;28;20040;-37
2022/11/29 02:27:00;;;;;;;70.65;10.50;;;7.80;99.90;;;;;;5065371;28;20070;-38
2022/11/29 02:30:03;;;;;;;146.48;15.15;;;7.80;99.90;;;;;;5068293;28;20052;-37
2022/11/29 02:33:04;;;;;;;38.03;6.95;;;7.80;99.90;;;;;;5061530;28;20036;-38
2022/11/29 02:35:33;;;;;;;79.88;10.27;;;7.80;99.90;;;;;;5026471;28;20095;-39
2022/11/29 02:38:09;;;;;;;91.80;10.25;;;7.80;99.90;;;;;;5057270;28;20049;-38
2022/11/29 02:40:56;;;;;;;54.97;8.15;;;7.80;99.90;;;;;;5069229;28;20044;-37
2022/11/29 02:43:34;;;;;;;39.58;7.03;;;7.80;99.90;;;;;;5060915;28;20037;-38
2022/11/29 02:46:29;;;;;;;49.70;7.22;;;7.70;99.90;;;;;;5066177;28;20509;-37
2022/11/29 02:48:59;;;;;;;75.80;8.95;;;7.70;99.90;;;;;;5065585;28;20067;-37
2022/11/29 02:51:40;;;;;;;56.90;7.93;;;7.70;99.90;;;;;;5065316;28;20040;-38
2022/11/29 02:54:26;;;;;;;45.88;7.10;;;7.60;99.90;;;;;;5058160;28;20037;-38
2022/11/29 02:57:14;;;;;;;28.00;6.00;;;7.60;99.90;;;;;;5064318;28;20036;-40
2022/11/29 02:59:54;;;;;;;24.60;5.93;;;7.60;99.90;;;;;;5061047;28;20086;-38
2022/11/29 03:02:47;;;;;;;46.75;7.75;;;7.60;99.90;;;;;;5060424;28;20533;-37
2022/11/29 03:05:15;;;;;;;;;;;7.50;99.90;;;;;;5058115;28;20455;-37
2022/11/29 03:07:55;;;;;;;63.03;10.90;;;7.50;99.90;;;;;;5064924;28;19931;-37
2022/11/29 03:10:57;;;;;;;37.20;6.50;;;7.50;99.90;;;;;;5067413;28;20037;-38
2022/11/29 03:13:52;;;;;;;51.20;8.00;;;7.50;99.90;;;;;;5062156;28;20498;-37
2022/11/29 03:16:45;;;;;;;30.38;6.82;;;7.50;99.90;;;;;;5063715;28;20409;-38
2022/11/29 03:19:22;;;;;;;;;;;7.50;99.90;;;;;;5058908;28;20478;-38
2022/11/29 03:22:02;;;;;;;33.15;5.05;;;7.50;99.90;;;;;;5066865;28;19920;-38
2022/11/29 03:24:48;;;;;;;30.10;6.63;;;7.40;99.90;;;;;;5062822;28;20053;-38
2022/11/29 03:27:20;;;;;;;29.63;5.40;;;7.40;99.90;;;;;;5061927;28;20036;-38
2022/11/29 03:30:01;;;;;;;25.17;5.40;;;7.40;99.90;;;;;;5068675;28;20078;-38
2022/11/29 03:32:41;;;;;;;30.85;4.65;;;7.40;99.90;;;;;;5064702;28;20072;-42
2022/11/29 03:35:41;;;;;;;28.42;5.00;;;7.30;99.90;;;;;;5048271;28;20053;-38
2022/11/29 03:38:18;;;;;;;51.83;7.10;;;7.40;99.90;;;;;;5027656;28;20161;-38
2022/11/29 03:41:05;;;;;;;42.80;7.65;;;7.30;99.90;;;;;;5039401;28;20041;-37
2022/11/29 03:43:37;;;;;;;62.83;8.07;;;7.40;99.90;;;;;;5026065;28;20041;-37
2022/11/29 03:46:20;;;;;;;57.35;9.00;;;7.30;99.90;;;;;;5041191;28;20041;-37
2022/11/29 03:48:51;;;;;;;53.58;8.23;;;7.30;99.90;;;;;;5043614;28;20612;-38
2022/11/29 03:51:56;;;;;;;35.15;5.82;;;7.30;99.90;;;;;;5039256;28;20112;-38
2022/11/29 03:54:27;;;;;;;39.95;5.82;;;7.30;99.90;;;;;;5038331;28;20037;-41
2022/11/29 03:56:53;;;;;;;38.00;6.28;;;7.30;99.90;;;;;;5038247;28;20037;-37
2022/11/29 03:59:34;;;;;;;45.42;6.68;;;7.30;99.90;;;;;;5038820;28;20391;-37
2022/11/29 04:02:22;;;;;;;67.03;9.30;;;7.30;99.90;;;;;;5033769;28;20098;-39
2022/11/29 04:05:06;;;;;;;70.35;9.10;;;7.30;99.90;;;;;;5039386;28;20124;-40
2022/11/29 04:07:59;;;;;;;80.15;8.73;;;7.30;99.90;;;;;;5038264;28;20091;-37
2022/11/29 04:10:28;;;;;;;;;;;7.30;99.90;;;;;;5045483;28;20032;-39
2022/11/29 04:13:15;;;;;;;76.22;8.73;;;7.30;99.90;;;;;;5027257;28;19924;-37
2022/11/29 04:16:13;;;;;;;51.50;7.78;;;7.30;99.90;;;;;;5043123;28;20396;-38
2022/11/29 04:19:01;;;;;;;79.20;9.90;;;7.30;99.90;;;;;;5043201;28;20040;-37
2022/11/29 04:21:48;;;;;;;85.32;10.05;;;7.30;99.90;;;;;;5039171;28;20529;-37
2022/11/29 04:24:51;;;;;;;43.10;6.00;;;7.30;99.90;;;;;;5035534;28;20029;-36
2022/11/29 04:27:30;;;;;;;35.75;6.85;;;7.40;99.90;;;;;;5038482;28;20049;-38
2022/11/29 04:30:12;;;;;;;85.13;10.55;;;7.40;99.90;;;;;;5031019;28;20414;-38
2022/11/29 04:32:58;;;;;;;94.47;12.67;;;7.40;99.90;;;;;;5041901;28;20495;-38
2022/11/29 04:36:00;;;;;;;66.25;10.68;;;7.40;99.90;;;;;;5051556;28;20053;-38
2022/11/29 04:38:53;;;;;;;57.28;7.88;;;7.40;99.90;;;;;;5063818;28;20509;-37
2022/11/29 04:41:42;;;;;;;112.45;12.45;;;7.30;99.90;;;;;;5065713;28;20048;-38
2022/11/29 04:44:21;;;;;;;92.82;9.98;;;7.40;99.90;;;;;;5062277;28;20410;-37
2022/11/29 04:47:03;;;;;;;166.85;15.50;;;7.30;99.90;;;;;;5058681;28;20430;-38
2022/11/29 04:49:34;;;;;;;33.93;6.77;;;7.40;99.90;;;;;;5064579;28;20044;-38
2022/11/29 04:52:36;;;;;;;70.03;9.50;;;7.40;99.90;;;;;;5060769;28;20076;-38
2022/11/29 04:55:27;;;;;;;131.57;16.50;;;7.40;99.90;;;;;;5059887;28;20036;-38
2022/11/29 04:58:16;;;;;;;52.13;8.15;;;7.40;99.90;;;;;;5061152;28;20045;-37
2022/11/29 05:01:14;;;;;;;54.10;7.82;;;7.40;99.90;;;;;;5053637;28;20410;-38
2022/11/29 05:04:00;;;;;;;125.07;13.40;;;7.40;99.90;;;;;;5056958;28;21251;-37
2022/11/29 05:07:13;;;;;;;148.95;15.13;;;7.40;99.90;;;;;;5060013;28;20041;-38
2022/11/29 05:10:12;;;;;;;81.40;9.38;;;7.40;99.90;;;;;;5056558;28;20102;-38
2022/11/29 05:13:05;;;;;;;80.70;10.50;;;7.40;99.90;;;;;;5059712;28;20410;-37
2022/11/29 05:15:44;;;;;;;71.85;8.10;;;7.40;99.90;;;;;;5059139;28;20472;-38
2022/11/29 05:18:12;;;;;;;149.20;12.60;;;7.30;99.90;;;;;;5059404;28;20048;-38
2022/11/29 05:20:44;;;;;;;145.45;12.90;;;7.30;99.90;;;;;;5059319;28;20478;-38
2022/11/29 05:23:31;;;;;;;149.88;14.00;;;7.30;99.90;;;;;;5062423;28;20059;-37
2022/11/29 05:26:09;;;;;;;94.07;10.65;;;7.30;99.90;;;;;;5062056;28;20048;-38
2022/11/29 05:28:58;;;;;;;122.90;12.35;;;7.30;99.90;;;;;;5061508;28;20225;-37
2022/11/29 05:31:29;;;;;;;144.35;15.52;;;7.30;99.90;;;;;;5054402;28;20025;-39
2022/11/29 05:34:20;;;;;;;73.28;8.18;;;7.20;99.90;;;;;;5066822;28;20036;-37
2022/11/29 05:36:59;;;;;;;147.68;14.02;;;7.20;99.90;;;;;;5060676;28;20518;-38
2022/11/29 05:40:14;;;;;;;117.53;11.52;;;7.30;99.90;;;;;;5060951;28;20126;-37
2022/11/29 05:42:43;;;;;;;113.30;10.07;;;7.20;99.90;;;;;;5054816;28;20045;-37
2022/11/29 05:45:30;;;;;;;190.15;16.13;;;7.20;99.90;;;;;;5057793;28;20545;-38
2022/11/29 05:48:54;;;;;;;152.60;15.70;;;7.20;99.90;;;;;;5058181;28;20068;-38
2022/11/29 05:51:47;;;;;;;157.30;15.05;;;7.20;99.90;;;;;;5023712;28;20124;-37
2022/11/29 05:54:21;;;;;;;154.95;15.30;;;7.20;99.90;;;;;;5058685;28;20411;-38
2022/11/29 05:57:25;;;;;;;159.73;15.10;;;7.20;99.90;;;;;;5060936;28;20040;-39
2022/11/29 05:59:52;;;;;;;128.30;12.25;;;7.10;99.90;;;;;;5053869;28;20052;-38
2022/11/29 06:02:32;;;;;;;118.03;11.55;;;7.10;99.90;;;;;;5057596;28;20123;-38
2022/11/29 06:05:13;;;;;;;163.88;13.68;;;7.10;99.90;;;;;;5054566;28;20049;-38
2022/11/29 06:08:02;;;;;;;190.55;13.48;;;7.10;99.90;;;;;;5059722;28;20048;-37
2022/11/29 06:10:32;;;;;;;132.63;14.75;;;7.10;99.90;;;;;;5056471;28;21360;-38
2022/11/29 06:13:17;;;;;;;220.80;18.58;;;7.10;99.90;;;;;;5054367;28;20028;-38
2022/11/29 06:16:08;;;;;;;193.82;16.30;;;7.10;99.90;;;;;;5062694;28;20508;-38
2022/11/29 06:18:47;;;;;;;160.75;13.05;;;7.10;99.90;;;;;;5057927;28;20127;-38
2022/11/29 06:21:33;;;;;;;85.00;11.25;;;7.10;99.90;;;;;;5062437;28;20078;-38
2022/11/29 06:24:34;;;;;;;74.93;8.80;;;7.10;99.90;;;;;;5056998;28;20041;-37
2022/11/29 06:27:25;;;;;;;109.30;10.95;;;7.10;99.90;;;;;;5056702;28;20513;-39
2022/11/29 06:30:16;;;;;;;75.72;9.70;;;7.10;99.90;;;;;;5060982;28;20051;-37
2022/11/29 06:32:42;;;;;;;185.63;18.42;;;7.00;99.90;;;;;;5055578;28;20082;-37
2022/11/29 06:35:28;;;;;;;100.93;10.43;;;7.00;99.90;;;;;;5055061;28;20139;-38
2022/11/29 06:37:56;;;;;;;144.45;11.88;;;7.00;99.90;;;;;;5058065;28;20037;-37
2022/11/29 06:40:22;;;;;;;146.48;13.77;;;7.00;99.90;;;;;;5054326;28;20049;-38
2022/11/29 06:42:47;;;;;;;112.07;11.68;;;7.00;99.90;;;;;;5058677;28;20049;-41
2022/11/29 06:45:14;;;;;;;95.88;10.23;;;7.10;99.90;;;;;;5052794;28;20040;-37
2022/11/29 06:47:45;;;;;;;78.50;8.95;;;7.00;99.90;;;;;;5054530;28;20072;-37
2022/11/29 06:50:13;;;;;;;67.20;8.77;;;7.00;99.90;;;;;;5055604;28;20058;-40
2022/11/29 06:52:53;;;;;;;135.07;12.90;;;7.10;99.90;;;;;;5058267;28;20041;-37
2022/11/29 06:55:30;;;;;;;114.57;11.18;;;7.10;99.90;;;;;;5067284;28;20060;-37
2022/11/29 06:58:32;;;;;;;92.53;8.77;;;7.00;99.90;;;;;;5057275;28;20048;-38
2022/11/29 07:01:30;;;;;;;135.93;15.25;;;7.00;99.90;;;;;;5059841;28;20049;-38
2022/11/29 07:04:15;;;;;;;136.35;13.48;;;7.00;99.90;;;;;;5030165;28;20607;-38
2022/11/29 07:06:41;;;;;;;132.88;13.88;;;7.00;99.90;;;;;;5060763;28;20036;-38
2022/11/29 07:09:15;;;;;;;92.68;11.25;;;7.00;99.90;;;;;;5061026;28;20456;-39
2022/11/29 07:11:41;;;;;;;109.53;11.27;;;7.00;99.90;;;;;;5054620;28;20489;-37
2022/11/29 07:14:08;;;;;;;89.38;10.52;;;7.00;99.90;;;;;;5061702;28;20033;-38
2022/11/29 07:17:09;;;;;;;40.85;6.05;;;7.00;99.90;;;;;;5063033;28;20040;-38
2022/11/29 07:19:49;;;;;;;110.57;9.02;;;7.00;99.90;;;;;;5066400;28;20036;-38
2022/11/29 07:22:42;;;;;;;66.35;8.75;;;7.00;99.90;;;;;;5060286;28;20118;-38
2022/11/29 07:25:36;;;;;;;38.17;6.23;;;7.00;99.90;;;;;;5060483;28;20079;-38
2022/11/29 07:28:21;;;;;;;109.40;11.02;;;7.00;99.90;;;;;;5066005;28;20051;-40
2022/11/29 07:31:01;;;;;;;160.70;16.83;;;7.00;99.90;;;;;;5063806;28;20131;-38
2022/11/29 07:33:36;;;;;;;75.63;9.05;;;7.00;99.90;;;;;;5056677;28;20037;-38
2022/11/29 07:36:22;;;;;;;66.00;8.60;;;7.00;99.90;;;;;;5066600;28;20509;-38
2022/11/29 07:39:06;;;;;;;70.65;8.00;;;7.10;99.90;;;;;;5067634;28;20495;-40
2022/11/29 07:41:51;;;;;;;87.55;8.55;;;7.00;99.90;;;;;;5058390;28;20094;-37
2022/11/29 07:44:23;;;;;;;88.97;8.60;;;7.10;99.90;;;;;;5065564;28;20044;-38
2022/11/29 07:46:48;;;;;;;52.03;7.63;;;7.00;99.90;;;;;;5069350;28;20048;-38
2022/11/29 07:49:14;;;;;;;94.47;10.07;;;7.00;99.90;;;;;;5065404;28;20087;-38
2022/11/29 07:51:40;;;;;;;47.22;7.78;;;6.90;99.90;;;;;;5063582;28;20044;-38
2022/11/29 07:54:06;;;;;;;87.75;8.90;;;7.00;99.90;;;;;;5060557;28;20494;-38
2022/11/29 07:56:31;;;;;;;78.30;8.75;;;7.00;99.90;;;;;;5065025;28;20493;-39
2022/11/29 07:58:57;;;;;;;86.55;10.13;;;6.90;99.90;;;;;;5071205;28;20043;-38
2022/11/29 08:01:23;;;;;;;113.03;8.27;;;6.90;99.90;;;;;;5062907;28;20047;-38
2022/11/29 08:03:48;;;;;;;76.95;7.28;;;6.90;99.90;;;;;;5068470;28;20066;-37
2022/11/29 08:06:14;;;;;;;35.75;5.35;;;6.80;99.90;;;;;;5056361;28;20119;-39
2022/11/29 08:08:39;;;;;;;46.92;6.28;;;6.70;99.90;;;;;;5061448;28;20490;-38
2022/11/29 08:11:13;;;;;;;24.48;3.83;;;6.80;99.90;;;;;;5063481;28;20043;-38
2022/11/29 08:13:38;;;;;;;43.35;5.00;;;6.70;99.90;;;;;;5065285;28;20045;-37
2022/11/29 08:16:04;;;;;;;38.15;4.85;;;6.70;99.90;;;;;;5067457;28;20043;-38
2022/11/29 08:18:30;;;;;;;34.42;5.40;;;6.80;99.90;;;;;;5064375;28;20041;-37
2022/11/29 08:20:55;;;;;;;63.20;6.55;;;6.80;99.90;;;;;;5057223;28;20497;-38
2022/11/29 08:23:21;;;;;;;32.78;3.85;;;6.80;99.90;;;;;;5060575;28;20067;-37
2022/11/29 08:25:47;;;;;;;52.10;6.75;;;6.80;99.90;;;;;;5056323;28;20040;-38
2022/11/29 08:28:13;;;;;;;34.90;5.07;;;6.80;99.90;;;;;;5057844;28;20046;-40
2022/11/29 08:30:39;;;;;;;79.35;8.85;;;6.80;99.90;;;;;;5059869;28;20028;-37
2022/11/29 08:33:05;;;;;;;61.22;6.65;;;6.80;99.90;;;;;;5060339;28;20037;-38
2022/11/29 08:35:30;;;;;;;54.67;5.82;;;6.80;99.90;;;;;;5059206;28;20057;-37
2022/11/29 08:37:56;;;;;;;57.88;5.90;;;6.80;99.90;;;;;;5061801;28;20040;-38
2022/11/29 08:40:22;;;;;;;45.80;7.05;;;6.80;99.90;;;;;;5054696;28;20029;-38
2022/11/29 08:42:48;;;;;;;48.78;6.25;;;6.80;99.90;;;;;;5063422;28;20090;-38
2022/11/29 08:45:14;;;;;;;43.72;6.15;;;6.80;99.90;;;;;;5062692;28;20072;-38
2022/11/29 08:47:41;;;;;;;41.47;4.75;;;6.80;99.90;;;;;;5060196;28;20088;-38
2022/11/29 08:50:13;;;;;;;32.90;5.10;;;6.80;99.90;;;;;;5064060;28;20061;-38
2022/11/29 08:55:34;;;;;;;59.55;7.47;;;6.80;99.90;;;;;;5060419;28;20067;-38
2022/11/29 08:58:06;;;;;;;34.10;5.00;;;6.70;99.90;;;;;;5068268;28;20051;-37
2022/11/29 09:00:32;;;;;;;56.45;5.50;;;6.80;99.90;;;;;;5061119;28;20040;-38
2022/11/29 09:03:58;;;;;;;43.08;5.72;;;6.70;99.90;;;;;;5063934;28;20040;-38
2022/11/29 09:05:43;;;;;;;79.75;7.38;;;6.80;99.90;;;;;;5058903;28;20452;-38
2022/11/29 09:08:09;;;;;;;75.68;8.65;;;6.80;99.90;;;;;;5067102;28;20097;-38
2022/11/29 09:10:38;;;;;;;65.15;7.25;;;6.70;99.90;;;;;;5063875;28;20048;-38
2022/11/29 09:13:04;;;;;;;53.63;6.85;;;6.80;99.90;;;;;;5066164;28;20055;-38
2022/11/29 09:15:29;;;;;;;17.45;3.70;;;6.80;99.90;;;;;;5068290;28;20515;-38
2022/11/29 09:17:55;;;;;;;28.25;3.97;;;6.90;99.90;;;;;;5064216;28;20505;-38
2022/11/29 09:20:21;;;;;;;68.18;7.63;;;6.90;99.90;;;;;;5062739;28;20115;-38
2022/11/29 09:22:46;;;;;;;45.70;8.48;;;7.00;99.90;;;;;;5056143;28;20460;-37
2022/11/29 09:25:12;;;;;;;69.25;7.97;;;7.00;99.90;;;;;;5060606;28;20427;-38
2022/11/29 09:27:40;;;;;;;66.68;8.38;;;7.10;99.90;;;;;;5065864;28;20143;-38
2022/11/29 09:30:07;;;;;;;52.30;8.60;;;7.10;99.90;;;;;;5063949;28;20501;-39
2022/11/29 09:32:34;;;;;;;60.40;7.47;;;7.10;99.90;;;;;;5062070;28;20111;-38
2022/11/29 09:35:00;;;;;;;38.95;7.18;;;7.20;99.90;;;;;;5066348;28;20053;-38
2022/11/29 09:37:26;;;;;;;41.72;7.65;;;7.20;99.90;;;;;;5063401;28;20032;-39
2022/11/29 09:39:52;;;;;;;22.23;6.07;;;7.10;99.90;;;;;;5064072;28;20382;-38
2022/11/29 09:42:43;;;;;;;41.88;6.95;;;7.10;99.90;;;;;;5054438;28;20037;-38
2022/11/29 09:45:17;;;;;;;51.08;8.65;;;7.20;99.90;;;;;;5056101;28;20128;-38
2022/11/29 09:47:56;;;;;;;23.77;6.05;;;7.20;99.90;;;;;;5060445;28;20080;-38
2022/11/29 09:50:30;;;;;;;38.25;7.47;;;7.20;99.90;;;;;;5064549;28;20502;-37
2022/11/29 09:52:55;;;;;;;44.38;8.98;;;7.30;99.90;;;;;;5064292;28;20527;-37
2022/11/29 09:55:49;;;;;;;34.28;6.43;;;7.30;99.90;;;;;;5060347;28;20032;-39
2022/11/29 09:58:20;;;;;;;53.53;8.55;;;7.30;99.90;;;;;;5060061;28;20127;-38
2022/11/29 10:01:07;;;;;;;20.98;4.50;;;7.30;99.90;;;;;;5064174;28;20408;-38
2022/11/29 10:03:45;;;;;;;42.88;5.57;;;7.30;99.90;;;;;;5061434;28;20044;-38
2022/11/29 10:06:24;;;;;;;97.53;9.27;;;7.30;99.90;;;;;;5062387;28;20048;-38
2022/11/29 10:08:56;;;;;;;78.03;8.93;;;7.30;99.90;;;;;;5057162;28;20569;-38
2022/11/29 10:11:38;;;;;;;122.10;11.32;;;7.30;99.90;;;;;;5049586;28;20036;-39
2022/11/29 10:14:16;;;;;;;56.00;7.17;;;7.30;99.90;;;;;;5058932;28;20449;-38
2022/11/29 10:16:49;;;;;;;60.33;7.70;;;7.30;99.90;;;;;;5058188;28;20123;-38
2022/11/29 10:19:18;;;;;;;91.47;9.48;;;7.30;99.90;;;;;;5059805;28;20047;-37
2022/11/29 10:21:52;;;;;;;71.57;8.27;;;7.40;99.90;;;;;;5063012;28;20131;-39
2022/11/29 10:24:21;;;;;;;84.68;8.88;;;7.40;99.90;;;;;;5059054;28;20072;-38
2022/11/29 10:26:47;;;;;;;31.70;6.05;;;7.40;99.90;;;;;;5059492;28;20044;-38
2022/11/29 10:29:14;;;;;;;118.18;11.93;;;7.40;99.90;;;;;;5056057;28;20517;-38
2022/11/29 10:31:43;;;;;;;41.38;6.15;;;7.50;99.90;;;;;;5062714;28;20047;-37
2022/11/29 10:34:20;;;;;;;45.40;6.70;;;7.50;99.90;;;;;;5057585;28;20033;-38
2022/11/29 10:37:01;;;;;;;49.35;9.43;;;7.60;99.90;;;;;;5061201;28;20044;-38
2022/11/29 10:39:53;;;;;;;33.83;6.60;;;7.60;99.90;;;;;;5059181;28;20041;-38
2022/11/29 10:45:32;;;;;;;21.63;6.53;;;7.70;99.90;;;;;;5064503;28;20084;-38
2022/11/29 10:48:03;;;;;;;21.65;6.35;;;7.80;99.90;;;;;;5063925;28;20041;-38
2022/11/29 10:50:32;;;;;;;21.98;6.72;;;8.00;99.90;;;;;;5058120;28;20029;-38
2022/11/29 10:53:08;;;;;;;16.50;6.75;;;8.00;99.90;;;;;;5059699;28;20036;-37
2022/11/29 10:55:55;;;;;;;22.20;5.82;;;8.10;99.90;;;;;;5052712;28;20350;-38
2022/11/29 10:58:26;;;;;;;14.13;5.78;;;8.00;99.90;;;;;;5063997;28;20178;-37
2022/11/29 11:00:53;;;;;;;18.77;6.43;;;8.10;99.90;;;;;;5064980;28;20501;-38
2022/11/29 11:03:32;;;;;;;13.13;5.75;;;8.10;99.90;;;;;;5062241;28;20040;-37
2022/11/29 11:06:07;;;;;;;10.10;5.10;;;8.10;99.90;;;;;;5065246;28;20045;-37
2022/11/29 11:08:34;;;;;;;16.73;5.60;;;8.10;99.90;;;;;;5062959;28;20115;-38
2022/11/29 11:11:02;;;;;;;14.73;4.93;;;8.20;99.90;;;;;;5062122;28;20082;-38
2022/11/29 11:13:31;;;;;;;12.55;6.05;;;8.30;99.90;;;;;;5066702;28;20040;-38
2022/11/29 11:16:18;;;;;;;12.48;5.50;;;8.30;99.90;;;;;;5067681;28;20067;-38
2022/11/29 11:18:46;;;;;;;13.02;5.10;;;8.30;99.90;;;;;;5063840;28;20529;-37
2022/11/29 11:21:18;;;;;;;15.80;5.30;;;8.40;99.90;;;;;;5058220;28;20131;-38
2022/11/29 11:23:58;;;;;;;15.27;5.40;;;8.40;99.90;;;;;;5054305;28;20106;-38
2022/11/29 11:26:25;;;;;;;14.63;5.45;;;8.40;99.90;;;;;;5066677;28;20048;-40
2022/11/29 11:29:18;;;;;;;10.13;5.65;;;8.40;99.90;;;;;;5056545;28;20049;-38
2022/11/29 11:31:54;;;;;;;12.73;5.13;;;8.40;99.90;;;;;;5055606;28;20086;-45
2022/11/29 11:34:30;;;;;;;12.20;5.50;;;8.40;99.90;;;;;;5055496;28;20057;-42
2022/11/29 11:37:14;;;;;;;9.50;4.72;;;8.40;99.90;;;;;;5058410;28;20044;-45
2022/11/29 11:39:42;;;;;;;12.13;4.63;;;8.40;99.90;;;;;;5059937;28;20045;-43
2022/11/29 11:42:36;;;;;;;12.82;4.50;;;8.30;99.90;;;;;;5059731;28;20048;-46
2022/11/29 11:45:25;;;;;;;10.38;4.32;;;8.30;99.90;;;;;;5058653;28;20106;-48
2022/11/29 11:48:00;;;;;;;12.02;4.82;;;8.40;99.90;;;;;;5054704;28;20076;-49
2022/11/29 11:50:28;;;;;;;13.23;4.30;;;8.50;99.90;;;;;;5064579;28;20079;-50
2022/11/29 11:53:26;;;;;;;9.27;4.35;;;8.60;99.90;;;;;;5063035;28;20040;-46
2022/11/29 11:56:07;;;;;;;12.23;5.28;;;8.60;99.90;;;;;;5056090;28;20603;-45
2022/11/29 11:58:45;;;;;;;12.85;5.75;;;8.60;99.90;;;;;;5062432;28;20138;-44
2022/11/29 12:01:22;;;;;;;11.95;5.45;;;8.60;99.90;;;;;;5055183;28;20041;-44
2022/11/29 12:04:02;;;;;;;16.95;5.40;;;8.50;99.90;;;;;;5059075;28;20494;-46
2022/11/29 12:06:53;;;;;;;13.07;5.05;;;8.50;99.90;;;;;;5053755;28;20064;-45
2022/11/29 12:09:39;;;;;;;9.85;4.78;;;8.50;99.90;;;;;;5064673;28;20037;-45
2022/11/29 12:12:19;;;;;;;14.25;4.70;;;8.40;99.90;;;;;;5057276;28;20037;-45
2022/11/29 12:14:55;;;;;;;12.68;5.18;;;8.40;99.90;;;;;;5054248;28;20124;-45
2022/11/29 12:17:59;;;;;;;13.02;4.95;;;8.40;99.90;;;;;;5056618;28;20045;-45
2022/11/29 12:20:43;;;;;;;12.85;6.07;;;8.40;99.90;;;;;;5056719;28;20048;-45
2022/11/29 12:23:11;;;;;;;16.02;5.57;;;8.40;99.90;;;;;;5062539;28;20099;-48
2022/11/29 12:25:57;;;;;;;12.13;5.60;;;8.50;99.90;;;;;;5063431;28;20082;-46
2022/11/29 12:28:30;;;;;;;12.40;5.90;;;8.50;99.90;;;;;;5061121;28;20032;-47
2022/11/29 12:30:55;;;;;;;;;;;8.50;99.90;;;;;;5058149;28;20040;-44
2022/11/29 12:33:30;;;;;;;15.80;5.45;;;8.50;99.90;;;;;;5060110;28;19916;-47
2022/11/29 12:36:23;;;;;;;14.57;5.95;;;8.50;99.90;;;;;;5066664;28;20102;-39
2022/11/29 12:39:17;;;;;;;17.15;6.20;;;8.50;99.90;;;;;;5061028;28;20053;-49
2022/11/29 12:41:55;;;;;;;13.38;6.20;;;8.50;99.90;;;;;;5047191;28;20114;-48
2022/11/29 12:44:42;;;;;;;16.95;5.65;;;8.40;99.90;;;;;;5066669;28;20533;-46
2022/11/29 12:47:40;;;;;;;14.10;5.68;;;8.40;99.90;;;;;;5062280;28;20105;-47
2022/11/29 12:50:37;;;;;;;14.48;6.18;;;8.40;99.90;;;;;;5058356;28;20060;-44
2022/11/29 12:53:20;;;;;;;17.73;5.93;;;8.40;99.90;;;;;;5054985;28;20551;-44
2022/11/29 12:56:13;;;;;;;17.65;6.43;;;8.40;99.90;;;;;;5057224;28;20037;-43
2022/11/29 12:58:39;;;;;;;;;;;8.50;99.90;;;;;;5054665;28;20127;-46
2022/11/29 13:01:23;;;;;;;12.73;5.30;;;8.50;99.90;;;;;;5062430;28;20546;-45
2022/11/29 13:04:07;;;;;;;14.68;6.65;;;8.50;99.90;;;;;;5058494;28;20052;-44
2022/11/29 13:06:52;;;;;;;16.25;6.75;;;8.50;99.90;;;;;;5061155;28;20128;-47
2022/11/29 13:09:50;;;;;;;18.88;7.00;;;8.50;99.90;;;;;;5052753;28;20045;-45
2022/11/29 13:12:37;;;;;;;20.00;6.97;;;8.50;99.90;;;;;;5052249;28;20138;-49
2022/11/29 13:15:14;;;;;;;16.25;6.10;;;8.60;99.90;;;;;;5059209;28;20045;-47
2022/11/29 13:17:51;;;;;;;22.83;6.95;;;8.60;99.90;;;;;;5060121;28;20059;-43
2022/11/29 13:20:46;;;;;;;23.70;7.07;;;8.60;99.90;;;;;;5055134;28;20032;-46
2022/11/29 13:23:45;;;;;;;16.17;6.40;;;8.70;99.90;;;;;;5055597;28;20036;-43
2022/11/29 13:26:12;;;;;;;15.90;6.22;;;8.70;99.90;;;;;;5059233;28;20061;-46
2022/11/29 13:28:40;;;;;;;19.85;6.85;;;8.70;99.90;;;;;;5051935;28;20068;-45
2022/11/29 13:31:11;;;;;;;16.27;6.47;;;8.70;99.90;;;;;;5055067;28;20044;-43
2022/11/29 13:33:58;;;;;;;16.52;6.05;;;8.70;99.90;;;;;;5056895;28;20032;-47
2022/11/29 13:36:42;;;;;;;17.08;5.88;;;8.70;99.90;;;;;;5057792;28;20498;-45
2022/11/29 13:39:10;;;;;;;21.70;7.45;;;8.70;99.90;;;;;;5065014;28;20036;-47
2022/11/29 13:41:39;;;;;;;18.83;6.32;;;8.70;99.90;;;;;;5063456;28;20059;-48
2022/11/29 13:44:18;;;;;;;21.63;6.60;;;8.80;99.90;;;;;;5067022;28;20040;-42